Time;durP1;ratioP1;P1;durP2;ratioP2;P2;SDS_P1;SDS_P2;PMS_P1;PMS_P2;Temp;Humidity;BMP_temperature;BMP_pressure;BME280_temperature;BME280_humidity;BME280_pressure;Samples;Min_cycle;Max_cycle;Signal;HPM_P1;HPM_P2
2022/09/07 00:00:38;;;;;;;;;;;24.30;62.00;;;;;;6249733;28;19935;-39
2022/09/07 00:03:39;;;;;;;;;;;24.10;61.80;;;;;;6249404;28;19932;-41
2022/09/07 00:06:41;;;;;;;;;;;24.40;61.80;;;;;;6251343;28;19966;-39
2022/09/07 00:09:43;;;;;;;;;;;24.20;62.00;;;;;;6249588;28;19930;-39
2022/09/07 00:12:44;;;;;;;;;;;24.40;62.10;;;;;;6251844;28;19935;-39
2022/09/07 00:15:46;;;;;;;;;;;24.50;62.00;;;;;;6253237;28;19940;-39
2022/09/07 00:18:47;;;;;;;;;;;24.40;62.10;;;;;;6237052;28;19938;-38
2022/09/07 00:21:49;;;;;;;;;;;24.00;61.90;;;;;;6253841;28;20073;-39
2022/09/07 00:24:51;;;;;;;;;;;24.00;62.00;;;;;;6247766;28;19932;-39
2022/09/07 00:27:52;;;;;;;;;;;24.20;62.20;;;;;;6250392;28;20051;-39
2022/09/07 00:30:54;;;;;;;;;;;24.30;62.20;;;;;;6254767;28;20039;-39
2022/09/07 00:33:56;;;;;;;;;;;24.00;62.10;;;;;;6260716;28;20043;-39
2022/09/07 00:36:58;;;;;;;;;;;24.20;62.00;;;;;;6263109;28;19928;-39
2022/09/07 00:40:00;;;;;;;;;;;24.20;62.10;;;;;;6262284;28;19932;-39
2022/09/07 00:43:02;;;;;;;;;;;24.30;62.20;;;;;;6257750;28;20028;-39
2022/09/07 00:46:04;;;;;;;;;;;24.00;62.00;;;;;;6245783;28;19933;-41
2022/09/07 00:49:08;;;;;;;;;;;24.10;62.70;;;;;;6264462;28;19932;-39
2022/09/07 00:52:10;;;;;;;;;;;24.00;62.00;;;;;;6260450;28;19925;-39
2022/09/07 00:55:13;;;;;;;;;;;24.20;62.10;;;;;;6259638;28;20058;-39
2022/09/07 00:58:14;;;;;;;;;;;24.00;62.70;;;;;;6260845;28;20090;-39
2022/09/07 01:01:16;;;;;;;;;;;23.90;61.90;;;;;;6258888;28;20058;-39
2022/09/07 01:04:18;;;;;;;;;;;23.80;61.90;;;;;;6260613;28;20042;-38
2022/09/07 01:07:20;;;;;;;;;;;24.00;62.70;;;;;;6261638;28;20715;-40
2022/09/07 01:10:23;;;;;;;;;;;24.30;62.30;;;;;;6262542;28;20067;-38
2022/09/07 01:13:26;;;;;;;;;;;24.30;62.10;;;;;;6261076;28;20942;-38
2022/09/07 01:16:35;;;;;;;;;;;24.30;62.30;;;;;;6260767;28;20042;-38
2022/09/07 01:19:51;;;;;;;;;;;24.10;62.10;;;;;;6260324;28;19970;-38
2022/09/07 01:23:07;;;;;;;;;;;23.80;61.90;;;;;;6262807;28;19934;-38
2022/09/07 01:26:19;;;;;;;;;;;24.20;62.20;;;;;;6256946;28;20416;-38
2022/09/07 01:29:26;;;;;;;;;;;23.90;61.90;;;;;;6250481;28;19932;-38
2022/09/07 01:32:33;;;;;;;;;;;24.20;62.20;;;;;;6246908;28;20032;-40
2022/09/07 01:35:40;;;;;;;;;;;23.80;62.00;;;;;;6248164;28;19932;-38
2022/09/07 01:38:44;;;;;;;;;;;24.20;62.20;;;;;;6232689;28;20034;-41
2022/09/07 01:41:51;;;;;;;;;;;24.30;62.40;;;;;;6250800;28;20582;-39
2022/09/07 01:44:57;;;;;;;;;;;24.30;62.30;;;;;;6245043;28;19964;-40
2022/09/07 01:48:01;;;;;;;;;;;24.30;62.20;;;;;;6242249;28;20042;-38
2022/09/07 01:51:03;;;;;;;;;;;23.70;62.00;;;;;;6245585;28;20059;-39
2022/09/07 01:54:06;;;;;;;;;;;24.00;62.30;;;;;;6241603;28;20175;-39
2022/09/07 01:57:12;;;;;;;;;;;24.00;62.30;;;;;;6242329;28;20802;-38
2022/09/07 02:00:15;;;;;;;;;;;23.80;62.10;;;;;;6228995;28;20364;-38
2022/09/07 02:03:19;;;;;;;;;;;24.00;62.30;;;;;;6226519;28;20054;-43
2022/09/07 02:06:22;;;;;;;;;;;23.80;62.20;;;;;;6239976;28;20275;-38
2022/09/07 02:09:27;;;;;;;;;;;24.20;62.40;;;;;;6229581;28;20118;-39
2022/09/07 02:12:33;;;;;;;;;;;23.90;62.20;;;;;;6246154;28;20502;-39
2022/09/07 02:15:42;;;;;;;;;;;24.00;62.30;;;;;;6246854;28;20496;-39
2022/09/07 02:18:44;;;;;;;;;;;24.00;62.20;;;;;;6242171;28;19928;-39
2022/09/07 02:21:48;;;;;;;;;;;24.80;62.70;;;;;;6240920;28;20736;-39
2022/09/07 02:24:51;;;;;;;;;;;23.70;62.10;;;;;;6248014;28;20216;-39
2022/09/07 02:27:56;;;;;;;;;;;23.90;62.20;;;;;;6246222;28;20193;-38
2022/09/07 02:30:58;;;;;;;;;;;23.80;62.10;;;;;;6233693;28;19985;-38
2022/09/07 02:34:00;;;;;;;;;;;24.10;62.40;;;;;;6248844;28;19928;-41
2022/09/07 02:37:04;;;;;;;;;;;23.80;62.20;;;;;;6252175;28;19932;-39
2022/09/07 02:40:07;;;;;;;;;;;23.90;62.20;;;;;;6234983;28;19955;-38
2022/09/07 02:43:09;;;;;;;;;;;24.20;62.40;;;;;;6254728;28;19939;-38
2022/09/07 02:46:20;;;;;;;;;;;24.20;62.30;;;;;;6253791;28;21561;-38
2022/09/07 02:49:27;;;;;;;;;;;24.10;62.30;;;;;;6255146;28;20416;-38
2022/09/07 02:52:35;;;;;;;;;;;24.00;62.20;;;;;;6240466;28;20236;-41
2022/09/07 02:55:42;;;;;;;;;;;23.90;62.30;;;;;;6243402;28;20042;-38
2022/09/07 02:58:45;;;;;;;;;;;23.80;62.10;;;;;;6246384;28;20321;-39
2022/09/07 03:01:54;;;;;;;;;;;23.80;62.20;;;;;;6247299;28;21005;-39
2022/09/07 03:05:00;;;;;;;;;;;24.40;62.50;;;;;;6243423;28;20098;-38
2022/09/07 03:08:04;;;;;;;;;;;23.80;62.20;;;;;;6254926;28;20965;-38
2022/09/07 03:11:06;;;;;;;;;;;24.00;62.40;;;;;;6251415;28;19942;-38
2022/09/07 03:14:12;;;;;;;;;;;23.80;62.30;;;;;;6242570;28;20494;-39
2022/09/07 03:17:14;;;;;;;;;;;24.20;62.40;;;;;;6225604;28;19928;-38
2022/09/07 03:20:16;;;;;;;;;;;24.00;62.30;;;;;;6245966;28;20528;-39
2022/09/07 03:23:17;;;;;;;;;;;23.80;62.30;;;;;;6226642;28;19928;-38
2022/09/07 03:26:22;;;;;;;;;;;23.70;62.30;;;;;;6246532;28;19957;-39
2022/09/07 03:29:23;;;;;;;;;;;24.10;62.40;;;;;;6235935;28;19975;-39
2022/09/07 03:32:28;;;;;;;;;;;23.80;62.40;;;;;;6251168;28;19932;-38
2022/09/07 03:35:30;;;;;;;;;;;24.10;62.50;;;;;;6245161;28;20276;-41
2022/09/07 03:38:31;;;;;;;;;;;23.80;62.40;;;;;;6246658;28;20408;-39
2022/09/07 03:41:32;;;;;;;;;;;23.80;62.40;;;;;;6244491;28;19932;-40
2022/09/07 03:44:34;;;;;;;;;;;23.80;62.40;;;;;;6242500;28;20266;-38
2022/09/07 03:47:39;;;;;;;;;;;24.10;62.70;;;;;;6249534;28;19982;-40
2022/09/07 03:50:40;;;;;;;;;;;24.40;62.70;;;;;;6245077;28;20176;-39
2022/09/07 03:53:42;;;;;;;;;;;24.00;62.50;;;;;;6244255;28;20158;-39
2022/09/07 03:56:44;;;;;;;;;;;23.70;62.30;;;;;;6243038;28;20334;-40
2022/09/07 03:59:45;;;;;;;;;;;24.00;62.50;;;;;;6245094;28;19932;-38
2022/09/07 04:02:47;;;;;;;;;;;23.70;62.40;;;;;;6245511;28;20626;-38
2022/09/07 04:05:49;;;;;;;;;;;24.10;62.60;;;;;;6243812;28;20401;-39
2022/09/07 04:08:50;;;;;;;;;;;23.70;62.40;;;;;;6247587;28;20865;-38
2022/09/07 04:11:51;;;;;;;;;;;23.80;62.40;;;;;;6254722;28;20050;-38
2022/09/07 04:14:56;;;;;;;;;;;23.50;62.30;;;;;;6244439;28;20359;-40
2022/09/07 04:17:58;;;;;;;;;;;23.90;62.60;;;;;;6219773;28;20717;-38
2022/09/07 04:20:59;;;;;;;;;;;24.10;62.50;;;;;;6241873;28;20007;-39
2022/09/07 04:24:00;;;;;;;;;;;23.90;62.30;;;;;;6239087;28;19972;-40
2022/09/07 04:27:02;;;;;;;;;;;23.80;62.40;;;;;;6241964;28;19932;-38
2022/09/07 04:30:04;;;;;;;;;;;23.60;62.30;;;;;;6237903;28;20678;-40
2022/09/07 04:33:06;;;;;;;;;;;24.00;62.40;;;;;;6237000;28;20271;-38
2022/09/07 04:36:07;;;;;;;;;;;24.10;62.70;;;;;;6236723;28;19968;-39
2022/09/07 04:39:09;;;;;;;;;;;23.70;62.40;;;;;;6239051;28;20118;-39
2022/09/07 04:42:10;;;;;;;;;;;24.00;62.50;;;;;;6240531;28;19931;-40
2022/09/07 04:45:12;;;;;;;;;;;23.80;62.50;;;;;;6243952;28;20571;-39
2022/09/07 04:48:17;;;;;;;;;;;23.70;62.60;;;;;;6231212;28;19961;-38
2022/09/07 04:51:19;;;;;;;;;;;24.00;62.50;;;;;;6236256;28;20001;-38
2022/09/07 04:54:20;;;;;;;;;;;23.80;62.40;;;;;;6241104;28;20777;-39
2022/09/07 04:57:24;;;;;;;;;;;23.70;62.50;;;;;;6242517;28;19932;-38
2022/09/07 05:00:26;;;;;;;;;;;23.80;62.60;;;;;;6251916;28;20025;-38
2022/09/07 05:03:28;;;;;;;;;;;23.70;62.50;;;;;;6242169;28;20403;-38
2022/09/07 05:06:29;;;;;;;;;;;23.80;62.60;;;;;;6217124;28;20093;-39
2022/09/07 05:09:31;;;;;;;;;;;23.70;62.50;;;;;;6249995;28;20043;-38
2022/09/07 05:12:32;;;;;;;;;;;23.90;62.70;;;;;;6252875;28;20450;-38
2022/09/07 05:15:34;;;;;;;;;;;24.00;62.80;;;;;;6245960;28;19936;-38
2022/09/07 05:18:36;;;;;;;;;;;23.60;63.00;;;;;;6251541;28;20941;-38
2022/09/07 05:21:37;;;;;;;;;;;24.20;62.70;;;;;;6256968;28;20052;-38
2022/09/07 05:24:39;;;;;;;;;;;23.70;62.40;;;;;;6224600;28;19939;-39
2022/09/07 05:27:41;;;;;;;;;;;23.50;62.40;;;;;;6240490;28;19928;-39
2022/09/07 05:30:42;;;;;;;;;;;23.90;62.60;;;;;;6239614;28;20354;-39
2022/09/07 05:34:04;;;;;;;;;;;24.20;63.00;;;;;;6205559;28;20267;-39
2022/09/07 05:37:25;;;;;;;;;;;23.60;62.50;;;;;;6219846;28;20470;-38
2022/09/07 05:40:30;;;;;;;;;;;24.00;62.70;;;;;;6231899;28;19932;-39
2022/09/07 05:43:31;;;;;;;;;;;23.90;62.70;;;;;;6229614;28;19932;-39
2022/09/07 05:46:36;;;;;;;;;;;23.60;62.80;;;;;;6222881;28;20304;-41
2022/09/07 05:49:39;;;;;;;;;;;23.60;62.90;;;;;;6233695;28;20284;-39
2022/09/07 05:52:40;;;;;;;;;;;23.90;63.10;;;;;;6243063;28;19932;-40
2022/09/07 05:55:41;;;;;;;;;;;23.40;62.90;;;;;;6239890;28;19938;-38
2022/09/07 05:58:47;;;;;;;;;;;23.70;63.60;;;;;;6240931;28;20837;-39
2022/09/07 06:01:48;;;;;;;;;;;23.70;63.00;;;;;;6243560;28;20046;-38
2022/09/07 06:04:53;;;;;;;;;;;24.00;63.30;;;;;;6234082;28;19932;-39
2022/09/07 06:07:55;;;;;;;;;;;23.70;63.20;;;;;;6225003;28;19932;-38
2022/09/07 06:10:56;;;;;;;;;;;23.70;63.40;;;;;;6201046;28;19964;-37
2022/09/07 06:13:58;;;;;;;;;;;23.60;63.20;;;;;;6205251;28;19932;-37
2022/09/07 06:16:59;;;;;;;;;;;23.70;63.40;;;;;;6227386;28;19932;-39
2022/09/07 06:20:02;;;;;;;;;;;23.50;63.30;;;;;;6235206;28;19932;-38
2022/09/07 06:23:03;;;;;;;;;;;23.80;63.30;;;;;;6221382;28;19938;-39
2022/09/07 06:26:06;;;;;;;;;;;23.70;63.00;;;;;;6210118;28;20057;-38
2022/09/07 06:29:08;;;;;;;;;;;23.60;63.10;;;;;;6211277;28;20005;-37
2022/09/07 06:32:10;;;;;;;;;;;23.40;63.10;;;;;;6192230;28;20038;-38
2022/09/07 06:35:32;;;;;;;;;;;23.80;63.20;;;;;;6188815;28;21604;-38
2022/09/07 06:38:35;;;;;;;;;;;23.50;63.10;;;;;;6192395;28;20071;-38
2022/09/07 06:41:36;;;;;;;;;;;23.70;63.10;;;;;;6187970;28;19932;-38
2022/09/07 06:45:04;;;;;;;;;;;23.50;62.80;;;;;;6160866;28;21727;-38
2022/09/07 06:48:05;;;;;;;;;;;23.80;62.90;;;;;;6185240;28;19978;-38
2022/09/07 06:51:10;;;;;;;;;;;23.80;62.70;;;;;;6154877;28;20062;-38
2022/09/07 06:54:11;;;;;;;;;;;23.70;63.10;;;;;;6165463;28;22431;-42
2022/09/07 06:57:33;;;;;;;;;;;23.80;63.00;;;;;;6123084;28;20054;-38
2022/09/07 07:00:34;;;;;;;;;;;23.60;62.90;;;;;;6116067;28;20591;-39
2022/09/07 07:03:36;;;;;;;;;;;23.50;62.90;;;;;;6039379;28;29998;-38
2022/09/07 07:06:39;;;;;;;;;;;23.50;63.20;;;;;;6058771;28;22652;-42
2022/09/07 07:09:40;;;;;;;;;;;23.50;62.90;;;;;;6100554;28;19932;-42
2022/09/07 07:12:42;;;;;;;;;;;23.40;62.70;;;;;;6049943;28;19933;-40
2022/09/07 07:15:43;;;;;;;;;;;23.80;62.80;;;;;;6083822;28;20059;-40
2022/09/07 07:18:47;;;;;;;;;;;24.00;62.70;;;;;;6083977;28;19982;-41
2022/09/07 07:21:49;;;;;;;;;;;23.90;62.90;;;;;;6072633;28;20506;-41
2022/09/07 07:25:10;;;;;;;;;;;23.80;62.80;;;;;;6100518;28;19939;-40
2022/09/07 07:28:12;;;;;;;;;;;23.50;62.50;;;;;;6081616;28;19935;-38
2022/09/07 07:31:35;;;;;;;;;;;24.00;62.70;;;;;;6077250;28;19986;-38
2022/09/07 07:34:36;;;;;;;;;;;24.00;62.00;;;;;;6079135;28;20818;-39
2022/09/07 07:37:40;;;;;;;;;;;24.00;62.50;;;;;;6063443;28;19932;-39
2022/09/07 07:40:41;;;;;;;;;;;23.80;62.40;;;;;;6102080;28;19939;-38
2022/09/07 07:43:43;;;;;;;;;;;24.10;62.90;;;;;;6090762;28;20484;-38
2022/09/07 07:46:46;;;;;;;;;;;23.80;62.50;;;;;;6101290;28;19932;-37
2022/09/07 07:49:48;;;;;;;;;;;23.70;62.40;;;;;;6118588;28;19931;-37
2022/09/07 07:52:50;;;;;;;;;;;23.70;62.30;;;;;;6102451;28;21920;-38
2022/09/07 07:56:12;;;;;;;;;;;24.00;62.70;;;;;;6063156;28;20050;-38
2022/09/07 07:59:13;;;;;;;;;;;23.50;62.50;;;;;;6027106;28;19932;-38
2022/09/07 08:02:17;;;;;;;;;;;24.00;62.90;;;;;;6006490;28;20070;-38
2022/09/07 08:05:18;;;;;;;;;;;23.60;62.70;;;;;;6004813;28;19932;-38
2022/09/07 08:08:21;;;;;;;;;;;23.90;62.90;;;;;;6034048;28;20857;-38
2022/09/07 08:11:23;;;;;;;;;;;23.70;62.50;;;;;;6057006;28;19939;-40
2022/09/07 08:14:24;;;;;;;;;;;24.10;62.80;;;;;;6056613;28;19932;-39
2022/09/07 08:17:26;;;;;;;;;;;24.10;62.40;;;;;;6062395;28;20154;-38
2022/09/07 08:20:30;;;;;;;;;;;24.20;62.50;;;;;;6026391;28;19939;-39
2022/09/07 08:23:33;;;;;;;;;;;24.10;62.20;;;;;;6059440;28;19937;-38
2022/09/07 08:26:34;;;;;;;;;;;24.20;62.10;;;;;;6037374;28;20032;-39
2022/09/07 08:29:36;;;;;;;;;;;24.30;62.00;;;;;;5991713;28;19957;-40
2022/09/07 08:32:37;;;;;;;;;;;23.90;61.90;;;;;;6021594;28;19939;-40
2022/09/07 08:35:40;;;;;;;;;;;24.00;62.10;;;;;;6062300;28;20743;-39
2022/09/07 08:38:42;;;;;;;;;;;24.00;61.20;;;;;;6079866;28;19949;-40
2022/09/07 08:41:52;;;;;;;;;;;24.20;61.90;;;;;;6071283;28;19932;-39
2022/09/07 08:44:59;;;;;;;;;;;24.20;61.90;;;;;;6057539;28;20923;-41
2022/09/07 08:48:03;;;;;;;;;;;24.50;62.10;;;;;;6054358;28;20021;-38
2022/09/07 08:51:09;;;;;;;;;;;24.30;61.90;;;;;;6049582;28;20397;-38
2022/09/07 08:54:11;;;;;;;;;;;24.10;61.80;;;;;;6054765;28;19932;-39
2022/09/07 08:57:22;;;;;;;;;;;24.40;61.90;;;;;;6045852;28;19940;-39
2022/09/07 09:00:23;;;;;;;;;;;24.20;61.90;;;;;;6047924;28;20042;-38
2022/09/07 09:03:26;;;;;;;;;;;24.30;62.00;;;;;;6054260;28;19981;-37
2022/09/07 09:06:39;;;;;;;;;;;24.20;61.80;;;;;;6043459;28;19932;-37
2022/09/07 09:09:50;;;;;;;;;;;24.40;62.00;;;;;;6064629;28;19932;-37
2022/09/07 09:12:57;;;;;;;;;;;24.60;62.00;;;;;;6055283;28;21248;-38
2022/09/07 09:16:01;;;;;;;;;;;24.40;61.80;;;;;;6075369;28;19932;-38
2022/09/07 09:19:11;;;;;;;;;;;24.40;61.90;;;;;;6082684;28;20917;-38
2022/09/07 09:22:14;;;;;;;;;;;24.50;61.80;;;;;;6063353;28;19963;-39
2022/09/07 09:25:18;;;;;;;;;;;24.30;62.00;;;;;;6025988;28;19932;-39
2022/09/07 09:28:20;;;;;;;;;;;24.40;61.90;;;;;;6073470;28;20465;-39
2022/09/07 09:31:23;;;;;;;;;;;24.50;62.00;;;;;;6063714;28;19939;-39
2022/09/07 09:34:24;;;;;;;;;;;24.60;62.00;;;;;;6058104;28;22106;-39
2022/09/07 09:37:33;;;;;;;;;;;24.40;61.80;;;;;;6054375;28;20070;-39
2022/09/07 09:40:36;;;;;;;;;;;24.10;61.50;;;;;;5991905;28;19932;-39
2022/09/07 09:43:40;;;;;;;;;;;24.40;61.70;;;;;;6022454;28;19939;-39
2022/09/07 09:46:46;;;;;;;;;;;24.70;61.80;;;;;;6023116;28;20386;-42
2022/09/07 09:49:48;;;;;;;;;;;24.80;61.80;;;;;;6022441;28;19986;-41
2022/09/07 09:52:50;;;;;;;;;;;24.30;61.60;;;;;;6048617;28;20881;-43
2022/09/07 09:55:53;;;;;;;;;;;24.40;61.70;;;;;;6045077;28;19940;-44
2022/09/07 09:59:09;;;;;;;;;;;23.90;61.20;;;;;;6055983;28;20317;-42
2022/09/07 10:02:32;;;;;;;;;;;24.50;61.50;;;;;;5990126;28;23069;-37
2022/09/07 10:05:53;;;;;;;;;;;24.70;61.50;;;;;;5959879;28;23720;-37
2022/09/07 10:08:57;;;;;;;;;;;24.70;61.50;;;;;;6003022;28;21813;-38
2022/09/07 10:11:59;;;;;;;;;;;24.40;61.40;;;;;;6035305;28;20032;-37
2022/09/07 10:15:19;;;;;;;;;;;24.40;61.50;;;;;;5988553;28;21056;-38
2022/09/07 10:18:24;;;;;;;;;;;24.70;61.50;;;;;;5981477;28;19932;-38
2022/09/07 10:21:26;;;;;;;;;;;24.60;61.30;;;;;;6067836;28;19932;-38
2022/09/07 10:24:30;;;;;;;;;;;24.70;61.50;;;;;;6070363;28;20095;-38
2022/09/07 10:27:34;;;;;;;;;;;24.70;61.40;;;;;;6044040;28;19932;-37
2022/09/07 10:30:38;;;;;;;;;;;24.50;61.20;;;;;;6079793;28;19932;-38
2022/09/07 10:33:45;;;;;;;;;;;24.30;61.20;;;;;;6086770;28;19932;-37
2022/09/07 10:37:08;;;;;;;;;;;24.70;61.60;;;;;;6102170;28;20009;-38
2022/09/07 10:40:16;;;;;;;;;;;24.70;61.70;;;;;;6110517;28;20233;-39
2022/09/07 10:43:22;;;;;;;;;;;24.70;61.50;;;;;;6122880;28;19940;-38
2022/09/07 10:46:34;;;;;;;;;;;24.50;61.40;;;;;;6165340;28;19932;-39
2022/09/07 10:49:56;;;;;;;;;;;24.50;61.40;;;;;;6103742;28;20077;-40
2022/09/07 10:53:24;;;;;;;;;;;24.60;61.80;;;;;;6116838;28;21048;-39
2022/09/07 10:56:49;;;;;;;;;;;24.70;61.80;;;;;;6157021;28;22925;-38
2022/09/07 10:59:59;;;;;;;;;;;24.30;61.50;;;;;;6156095;28;19939;-38
2022/09/07 11:03:24;;;;;;;;;;;24.70;61.80;;;;;;6171330;28;20067;-38
2022/09/07 11:06:30;;;;;;;;;;;24.30;61.50;;;;;;6169377;28;19932;-39
2022/09/07 11:09:39;;;;;;;;;;;24.60;61.60;;;;;;6169684;28;19932;-39
2022/09/07 11:12:42;;;;;;;;;;;24.40;61.40;;;;;;6150939;28;19932;-39
2022/09/07 11:15:47;;;;;;;;;;;24.70;61.80;;;;;;6169411;28;19932;-38
2022/09/07 11:18:54;;;;;;;;;;;24.50;61.80;;;;;;6145569;28;19932;-38
2022/09/07 11:22:20;;;;;;;;;;;24.60;61.90;;;;;;6128778;28;21493;-38
2022/09/07 11:25:25;;;;;;;;;;;24.30;61.80;;;;;;6150326;28;19981;-38
2022/09/07 11:28:36;;;;;;;;;;;24.70;62.10;;;;;;6127633;28;19964;-39
2022/09/07 11:31:40;;;;;;;;;;;24.50;62.00;;;;;;6154429;28;20029;-38
2022/09/07 11:34:46;;;;;;;;;;;24.50;62.10;;;;;;6144002;28;21390;-39
2022/09/07 11:37:53;;;;;;;;;;;24.30;62.00;;;;;;6120293;28;19936;-39
2022/09/07 11:40:58;;;;;;;;;;;24.20;61.90;;;;;;6140093;28;21605;-37
2022/09/07 11:44:04;;;;;;;;;;;24.70;62.20;;;;;;6142578;28;19965;-36
2022/09/07 11:47:11;;;;;;;;;;;24.20;61.60;;;;;;6113749;28;19939;-36
2022/09/07 11:50:14;;;;;;;;;;;24.60;62.00;;;;;;6114774;28;19935;-36
2022/09/07 11:53:17;;;;;;;;;;;24.70;62.00;;;;;;6103773;28;20884;-35
2022/09/07 11:56:24;;;;;;;;;;;24.60;61.80;;;;;;6101891;28;19932;-35
2022/09/07 11:59:30;;;;;;;;;;;24.70;61.60;;;;;;6102033;28;19939;-35
2022/09/07 12:02:56;;;;;;;;;;;24.10;61.20;;;;;;6062810;28;21072;-36
2022/09/07 12:06:14;;;;;;;;;;;25.10;61.70;;;;;;6059837;28;20028;-36
2022/09/07 12:09:20;;;;;;;;;;;24.70;61.40;;;;;;6030286;28;20977;-39
2022/09/07 12:12:31;;;;;;;;;;;24.80;61.40;;;;;;6023688;28;20787;-39
2022/09/07 12:15:38;;;;;;;;;;;24.70;61.50;;;;;;6085078;28;19932;-41
2022/09/07 12:18:50;;;;;;;;;;;24.50;61.20;;;;;;6085130;28;19940;-41
2022/09/07 12:21:58;;;;;;;;;;;24.90;61.40;;;;;;6038829;28;20005;-40
2022/09/07 12:25:07;;;;;;;;;;;24.70;60.70;;;;;;6081981;28;20078;-39
2022/09/07 12:28:14;;;;;;;;;;;24.60;61.10;;;;;;6068570;28;21026;-40
2022/09/07 12:31:37;;;;;;;;;;;25.20;61.50;;;;;;6087517;28;19932;-39
2022/09/07 12:34:49;;;;;;;;;;;24.30;60.80;;;;;;6019237;28;21504;-40
2022/09/07 12:37:51;;;;;;;;;;;24.90;61.00;;;;;;6041230;28;19940;-39
2022/09/07 12:40:58;;;;;;;;;;;24.70;60.90;;;;;;6048106;28;19932;-44
2022/09/07 12:44:14;;;;;;;;;;;24.90;61.70;;;;;;6046603;28;22347;-40
2022/09/07 12:47:27;;;;;;;;;;;23.30;60.00;;;;;;6071378;28;22147;-41
2022/09/07 12:50:31;;;;;;;;;;;25.00;60.60;;;;;;6050780;28;20030;-40
2022/09/07 12:53:42;;;;;;;;;;;24.60;60.80;;;;;;6063378;28;20062;-40
2022/09/07 12:56:45;;;;;;;;;;;25.00;60.90;;;;;;6007323;28;19939;-41
2022/09/07 12:59:54;;;;;;;;;;;24.50;60.60;;;;;;6022327;28;19932;-39
2022/09/07 13:03:11;;;;;;;;;;;24.70;60.20;;;;;;6011661;28;20066;-39
2022/09/07 13:06:42;;;;;;;;;;;25.00;60.70;;;;;;5989138;28;19964;-39
2022/09/07 13:10:15;;;;;;;;;;;25.10;60.90;;;;;;6015296;28;20017;-40
2022/09/07 13:13:18;;;;;;;;;;;24.70;60.70;;;;;;6018282;28;19932;-40
2022/09/07 13:16:41;;;;;;;;;;;24.60;60.50;;;;;;5974312;28;19932;-38
2022/09/07 13:20:04;;;;;;;;;;;25.00;60.40;;;;;;6014548;28;20994;-40
2022/09/07 13:23:12;;;;;;;;;;;25.10;61.10;;;;;;6028790;28;19986;-42
2022/09/07 13:26:33;;;;;;;;;;;24.80;60.80;;;;;;6016768;28;19932;-40
2022/09/07 13:29:37;;;;;;;;;;;24.80;60.90;;;;;;6016001;28;21705;-40
2022/09/07 13:32:40;;;;;;;;;;;25.10;60.80;;;;;;6048013;28;20069;-39
2022/09/07 13:36:03;;;;;;;;;;;24.70;60.50;;;;;;5991534;28;20268;-39
2022/09/07 13:39:07;;;;;;;;;;;25.40;60.90;;;;;;6009715;28;19932;-39
2022/09/07 13:42:14;;;;;;;;;;;25.20;60.70;;;;;;5992271;28;19932;-39
2022/09/07 13:45:30;;;;;;;;;;;25.10;60.50;;;;;;6022010;28;19972;-39
2022/09/07 13:48:33;;;;;;;;;;;25.20;60.80;;;;;;6005875;28;19939;-39
2022/09/07 13:51:40;;;;;;;;;;;25.10;61.00;;;;;;6042740;28;21578;-39
2022/09/07 13:54:57;;;;;;;;;;;25.30;60.70;;;;;;6047965;28;20380;-39
2022/09/07 13:58:09;;;;;;;;;;;25.10;60.60;;;;;;6051598;28;21116;-39
2022/09/07 14:01:15;;;;;;;;;;;25.20;60.20;;;;;;6011793;28;19932;-40
2022/09/07 14:04:20;;;;;;;;;;;24.80;60.30;;;;;;6031231;28;22286;-40
2022/09/07 14:07:22;;;;;;;;;;;25.30;60.60;;;;;;6041041;28;19946;-40
2022/09/07 14:10:25;;;;;;;;;;;25.10;60.50;;;;;;5994098;28;19939;-41
2022/09/07 14:13:26;;;;;;;;;;;25.20;60.70;;;;;;6025320;28;21082;-41
2022/09/07 14:16:28;;;;;;;;;;;25.20;60.70;;;;;;6048346;28;21062;-41
2022/09/07 14:19:33;;;;;;;;;;;25.30;60.80;;;;;;6051036;28;19935;-40
2022/09/07 14:22:35;;;;;;;;;;;24.90;60.50;;;;;;6047431;28;20088;-40
2022/09/07 14:25:38;;;;;;;;;;;25.30;60.70;;;;;;6050930;28;19938;-40
2022/09/07 14:29:00;;;;;;;;;;;25.30;60.80;;;;;;6035404;28;19932;-44
2022/09/07 14:32:02;;;;;;;;;;;25.30;61.00;;;;;;6038773;28;20897;-41
2022/09/07 14:35:04;;;;;;;;;;;25.20;60.80;;;;;;6032570;28;19980;-40
2022/09/07 14:38:13;;;;;;;;;;;25.20;60.90;;;;;;6032389;28;21437;-41
2022/09/07 14:41:17;;;;;;;;;;;25.20;60.60;;;;;;6038571;28;20488;-42
2022/09/07 14:44:26;;;;;;;;;;;25.00;60.90;;;;;;6021744;28;20028;-40
2022/09/07 14:47:29;;;;;;;;;;;25.20;61.10;;;;;;6030164;28;19993;-40
2022/09/07 14:50:32;;;;;;;;;;;25.20;61.20;;;;;;6022425;28;19932;-41
2022/09/07 14:53:33;;;;;;;;;;;25.10;61.00;;;;;;6055667;28;20902;-40
2022/09/07 14:56:38;;;;;;;;;;;25.30;61.10;;;;;;6045580;28;19932;-40
2022/09/07 14:59:40;;;;;;;;;;;24.90;60.80;;;;;;6033561;28;19940;-41
2022/09/07 15:02:43;;;;;;;;;;;25.20;60.90;;;;;;5985192;28;20120;-38
2022/09/07 15:05:46;;;;;;;;;;;25.00;60.80;;;;;;6056761;28;20373;-39
2022/09/07 15:08:48;;;;;;;;;;;25.50;60.90;;;;;;6062786;28;20695;-40
2022/09/07 15:12:00;;;;;;;;;;;25.50;60.90;;;;;;6062444;28;19932;-40
2022/09/07 15:15:08;;;;;;;;;;;25.10;60.40;;;;;;6082321;28;20902;-41
2022/09/07 15:18:24;;;;;;;;;;;25.20;60.50;;;;;;6047972;28;19939;-40
2022/09/07 15:21:26;;;;;;;;;;;25.20;60.50;;;;;;6075326;28;19932;-40
2022/09/07 15:24:28;;;;;;;;;;;25.30;60.60;;;;;;6083984;28;19936;-40
2022/09/07 15:27:30;;;;;;;;;;;25.30;60.60;;;;;;6104059;28;19940;-40
2022/09/07 15:30:32;;;;;;;;;;;25.10;60.60;;;;;;6087740;28;19932;-39
2022/09/07 15:33:34;;;;;;;;;;;25.20;60.70;;;;;;6096274;28;19939;-41
2022/09/07 15:36:36;;;;;;;;;;;24.80;60.40;;;;;;6070744;28;20551;-40
2022/09/07 15:39:42;;;;;;;;;;;25.10;60.40;;;;;;6077204;28;20029;-40
2022/09/07 15:42:45;;;;;;;;;;;25.10;60.50;;;;;;6134698;28;19939;-39
2022/09/07 15:46:06;;;;;;;;;;;25.20;60.50;;;;;;6097460;28;20070;-39
2022/09/07 15:49:07;;;;;;;;;;;24.90;60.40;;;;;;6138843;28;19932;-40
2022/09/07 15:52:08;;;;;;;;;;;24.70;60.30;;;;;;6123164;28;21661;-39
2022/09/07 15:55:10;;;;;;;;;;;24.90;60.30;;;;;;6108661;28;20010;-40
2022/09/07 15:58:12;;;;;;;;;;;25.00;60.40;;;;;;6116810;28;20066;-39
2022/09/07 16:01:14;;;;;;;;;;;25.00;60.50;;;;;;6119741;28;20914;-39
2022/09/07 16:04:35;;;;;;;;;;;24.80;60.30;;;;;;6119346;28;19939;-41
2022/09/07 16:07:40;;;;;;;;;;;25.10;60.60;;;;;;6148428;28;21753;-38
2022/09/07 16:11:11;;;;;;;;;;;25.10;60.60;;;;;;6107008;28;19932;-39
2022/09/07 16:14:20;;;;;;;;;;;25.00;60.60;;;;;;6129738;28;19932;-39
2022/09/07 16:17:21;;;;;;;;;;;24.70;60.40;;;;;;6117770;28;19932;-39
2022/09/07 16:20:38;;;;;;;;;;;24.90;60.60;;;;;;6133112;28;20857;-39
2022/09/07 16:23:41;;;;;;;;;;;25.00;60.60;;;;;;6128631;28;19945;-39
2022/09/07 16:26:42;;;;;;;;;;;25.00;60.70;;;;;;6153544;28;19932;-39
2022/09/07 16:29:48;;;;;;;;;;;24.70;60.60;;;;;;6161384;28;19932;-39
2022/09/07 16:32:49;;;;;;;;;;;24.70;60.50;;;;;;6154687;28;21702;-42
2022/09/07 16:35:58;;;;;;;;;;;25.50;61.00;;;;;;6172905;28;20442;-40
2022/09/07 16:39:00;;;;;;;;;;;24.60;60.30;;;;;;6156672;28;19932;-39
2022/09/07 16:42:02;;;;;;;;;;;24.90;60.70;;;;;;6178904;28;19983;-39
2022/09/07 16:45:05;;;;;;;;;;;24.70;60.50;;;;;;6185237;28;19932;-40
2022/09/07 16:48:28;;;;;;;;;;;24.80;60.50;;;;;;6174493;28;19971;-39
2022/09/07 16:51:30;;;;;;;;;;;25.00;60.50;;;;;;6201370;28;19933;-42
2022/09/07 16:54:32;;;;;;;;;;;24.60;60.40;;;;;;6199425;28;20720;-41
2022/09/07 16:57:34;;;;;;;;;;;24.70;60.40;;;;;;6198952;28;20482;-40
2022/09/07 17:00:56;;;;;;;;;;;25.10;60.60;;;;;;6176233;28;20060;-40
2022/09/07 17:03:58;;;;;;;;;;;25.00;60.60;;;;;;6201300;28;20911;-39
2022/09/07 17:06:59;;;;;;;;;;;25.00;60.60;;;;;;6206665;28;19939;-40
2022/09/07 17:10:00;;;;;;;;;;;24.90;60.70;;;;;;6203084;28;20169;-40
2022/09/07 17:13:02;;;;;;;;;;;24.90;60.70;;;;;;6208919;28;20002;-39
2022/09/07 17:16:11;;;;;;;;;;;25.00;60.50;;;;;;6207157;28;19928;-40
2022/09/07 17:19:15;;;;;;;;;;;24.70;60.50;;;;;;6190281;28;20055;-41
2022/09/07 17:22:32;;;;;;;;;;;25.00;60.70;;;;;;6210098;28;20030;-39
2022/09/07 17:25:33;;;;;;;;;;;24.80;60.60;;;;;;6214416;28;20042;-40
2022/09/07 17:28:35;;;;;;;;;;;24.50;60.40;;;;;;6223796;28;20056;-40
2022/09/07 17:31:37;;;;;;;;;;;24.60;60.40;;;;;;6211037;28;19935;-40
2022/09/07 17:34:59;;;;;;;;;;;25.00;60.80;;;;;;6206071;28;19940;-39
2022/09/07 17:38:00;;;;;;;;;;;25.10;60.90;;;;;;6222617;28;20048;-39
2022/09/07 17:41:06;;;;;;;;;;;24.80;60.60;;;;;;6222317;28;19935;-39
2022/09/07 17:44:08;;;;;;;;;;;25.00;60.60;;;;;;6223388;28;21372;-39
2022/09/07 17:47:10;;;;;;;;;;;24.70;60.50;;;;;;6225791;28;19933;-41
2022/09/07 17:50:11;;;;;;;;;;;24.90;60.70;;;;;;6218905;28;20042;-40
2022/09/07 17:53:12;;;;;;;;;;;24.90;60.70;;;;;;6215978;28;20044;-42
2022/09/07 17:56:15;;;;;;;;;;;25.10;61.00;;;;;;6228835;28;21056;-40
2022/09/07 17:59:16;;;;;;;;;;;25.00;60.70;;;;;;6230112;28;20051;-40